Detall de PIREP

Printer-friendly versionPDF version

[2012/08/26 07:29:00]
Flight IATA:CT1001
Pilot Number:042
Company ICAO:CAT
Aircraft Type:B738/F
PAX:82
Departing Airport: EETN
Destination Airport: EPKK
Alternate Airport:EPWA
Online: VATSIM
Route:ORTAX L729 LUTAL P870 BOKSU M857 SUW M985 POBOK
Flight Level:F340
No Slew and time accel
No pause
Crash detect
Detect pilot in Cockpit between each 30 and 45 minutes
07:29 Zero fuel Weight: 133180 Lbs, Fuel Weight: 46056 Lbs
07:29 VATSIM:EETN 260720Z 18006KT 5000 BR BKN002 14/14 Q1009 NOSIG
07:29 VATSIM:EPKK 260700Z 28014KT 9999 -SHRA SCT020TCU SCT053 19/16 Q1011
07:29 VOICE CATALONIAN/DISCOVER EUROPE
07:39 Parking Brakes off
07:41 Take-off
07:41 Take off Weight: 178543 Lbs
07:41 Wind: 164º @ 004 Knots Heading: 092º
07:41 POS N59º 24´ 47´´ E024º 51´ 54´´
07:41 Gear Up: 179 Knots
07:41 Flaps:5 at 179 Knots
07:42 Flaps:4 at 172 Knots
07:42 Flaps:3 at 162 Knots
07:42 Flaps:2 at 156 Knots
07:43 Flaps:1 at 218 Knots
07:43 Flaps:0 at 220 Knots
07:56 Wind:256º@023 Knots Heading: 206º Ground Speed: 421 Knots Altitude 23835 ft
08:05 TOC
08:05 Fuel Weight: 40532 Lb
08:11 Wind:256º@114 Knots Heading: 203º Ground Speed: 399 Knots Altitude 33897 ft
08:26 Wind:250º@119 Knots Heading: 199º Ground Speed: 394 Knots Altitude 33874 ft
08:41 Wind:247º@083 Knots Heading: 216º Ground Speed: 394 Knots Altitude 33891 ft
08:56 Wind:237º@083 Knots Heading: 214º Ground Speed: 386 Knots Altitude 33904 ft
09:05 TOD
09:05 Fuel Weight: 34436 Lb
09:11 Wind:226º@043 Knots Heading: 189º Ground Speed: 367 Knots Altitude 20708 ft
09:19 Flaps:1 at 217 Knots
09:20 Flaps:2 at 203 Knots
09:21 Flaps:3 at 195 Knots
09:24 Gear Down: 181 Knots
09:24 Flaps:4 at 181 Knots
09:25 Flaps:5 at 169 Knots
09:25 Flaps:6 at 167 Knots
09:25 Flaps:7 at 158 Knots
09:25 Flaps:8 at 155 Knots
09:26 Wind:237º@007 Knots Heading: 257º Ground Speed: 147 Knots Altitude 2716 ft
09:28 TouchDown:Rate -154 ft/min Speed: 141 Knots
09:28 VATSIM:EPKK 260900Z 24007KT 9999 SCT008 BKN053 18/17 Q1012
09:28 Land
09:28 Wind:237º@007 Knots
09:28 Heading: 261º
09:28 Flight Duration: 01:47
09:28 Landing Weight: 166381 Lbs
09:28 POS N50º 04´ 36´´ E019º 46´ 38´´
09:33 Parking brakes on
09:33 Block to Block Duration: 01:54
09:33 Final Fuel: 32735 Lbls
09:33 Spent Fuel: 13320 Lbls
09:33 Flight Length: 648 NM
09:33 TOD Land Length: 106 NM

Exportar CSV

Powered by Drupal - Modified by Danger4k